MRPV

Details ICAO MRPV (SYQ)
Name TOBIAS BOLANOS INTL
Region Costa Rica
Timezone America/Costa_Rica (UTC-6.0)
Plans Departing 73
Arriving 36
Stats Elevation 3,287 ft / 1,002 m (AMSL)
Location 9.957050° -84.139800°
Runways 1
Magnetic Variation 1.875° W
Sunrise 2018-10-17 11:26:12 UTC / 2018-10-17 05:26:12 Local
Sunset 2018-10-17 23:19:52 UTC / 2018-10-17 17:19:52 Local
Advertisement - Login to hide

Runways

ID Width Length Bearing (true/mag) Surface Threshold Overrun Markings Lighting
09 60 ft / 18 m 5,304 ft / 1,617 m 95.09° / 96.97° ASPHALT 200 ft / 61 m 0 ft / 0 m APP
27 60 ft / 18 m 5,304 ft / 1,617 m 275.10° / 276.97° ASPHALT 0 ft / 0 m 0 ft / 0 m APP

Map

Weather


0- 5 10 15 20 25 30 35+ Temperature / °C

Clouds and Precipitation
Forecast for 2018-10-17 18:00 UTC. Updated 6 hours ago

Ground ~20,000 ft ~40,000 ft Winds

METAR

MRPV 172100Z 30003KT 8000 -RA BCFG SCT008 BKN100 20/19 A2998 NOSIG

TAF

MRPV 171700Z 1718/1818 VRB02KT 9999 BCFG SCT020 BKN080 TX24/1717Z TN19/1810Z TEMPO 1718/1721 3000 SHRA FEW020TCU PROB40 1721/1801 1500 -TSRA FEW008CB TEMPO 1801/1803 3000 DZ BR BKN015 BECMG 1803/1805 08004KT

Frequencies

Ground 121.70 MHz
Tower 118.30 MHz PAVAS TWR
Warning: Do not use this data for real-world aviation or navigation. No guarantee of current accuracy is given.